Main page
METAR-TAF:

METAR-TAF

Airports :

South Jersey Regional Airport

Mount Holly, New Jersey, United States

latitude: 39-56-26N, longitude: 074-50-28W, elevation: 52 ft

Current weather observation

The report was made 25 minutes ago, at 21:54 UTC
Wind 10 mph from the North/Northwest
Temperature 54°F
Humidity 40%
Pressure 29.75 in. Hg
Visibility: 10 miles
Overcast at a height of 7000 ft

METAR: KVAY 012154Z AUTO 34009KT 10SM OVC070 12/M01 A2975 RMK AO2 SLP072 T01171011

Time: 18:19 (22:19 UTC)


TAF: missing

Weather observations and forecasts of more than 4000 airports (METAR and TAF reports).

The available stations are represented by yellow and red dots on the map.

Hover mouse over dot to see the name of the station.

Then click to see weather observations and forecasts.

To change the map : click on the green buttons with a black cross to zoom in, on the green button with a dash to zoom out, or on the green arrows for adjacent maps.


METAR-TAF: